Time;durP1;ratioP1;P1;durP2;ratioP2;P2;SDS_P1;SDS_P2;PMS_P1;PMS_P2;Temp;Humidity;BMP_temperature;BMP_pressure;BME280_temperature;BME280_humidity;BME280_pressure;Samples;Min_cycle;Max_cycle;Signal;HPM_P1;HPM_P2
2022/07/02 00:00:55;;;;;;;6.70;3.65;;;;;;;;;;4999312;28;20045;-80
2022/07/02 00:03:23;;;;;;;6.60;3.85;;;;;;;;;;5041480;28;20033;-80
2022/07/02 00:05:54;;;;;;;7.53;3.95;;;;;;;;;;4998541;28;20100;-81
2022/07/02 00:08:20;;;;;;;4.57;3.45;;;;;;;;;;5041550;28;20041;-81
2022/07/02 00:10:46;;;;;;;10.07;4.13;;;;;;;;;;5024255;28;20124;-80
2022/07/02 00:13:11;;;;;;;10.75;4.10;;;;;;;;;;5038838;28;20031;-81
2022/07/02 00:15:37;;;;;;;14.20;4.38;;;;;;;;;;5024263;28;20508;-81
2022/07/02 00:18:02;;;;;;;8.82;4.13;;;;;;;;;;5021707;28;20025;-81
2022/07/02 00:20:27;;;;;;;10.23;4.32;;;;;;;;;;4998787;28;20029;-81
2022/07/02 00:22:53;;;;;;;7.00;3.63;;;;;;;;;;4998535;28;20053;-81
2022/07/02 00:25:18;;;;;;;7.10;3.58;;;;;;;;;;5024596;28;20056;-79
2022/07/02 00:27:43;;;;;;;8.98;4.18;;;;;;;;;;5012437;28;20508;-80
2022/07/02 00:30:09;;;;;;;9.77;4.47;;;;;;;;;;5041881;28;20033;-80
2022/07/02 00:32:35;;;;;;;6.80;4.10;;;;;;;;;;5023275;28;20029;-80
2022/07/02 00:35:06;;;;;;;8.25;4.40;;;;;;;;;;5025270;28;20048;-80
2022/07/02 00:37:31;;;;;;;9.82;4.55;;;;;;;;;;5013273;28;20040;-81
2022/07/02 00:39:57;;;;;;;10.40;5.05;;;;;;;;;;5029134;28;20029;-81
2022/07/02 00:42:25;;;;;;;8.43;5.13;;;;;;;;;;5011036;28;20049;-80
2022/07/02 00:44:51;;;;;;;8.20;4.78;;;;;;;;;;5009367;28;25324;-81
2022/07/02 00:47:16;;;;;;;10.02;5.15;;;;;;;;;;5008708;28;20778;-80
2022/07/02 00:49:42;;;;;;;8.18;5.15;;;;;;;;;;4995760;28;20065;-80
2022/07/02 00:52:07;;;;;;;11.32;5.78;;;;;;;;;;5026957;28;20057;-81
2022/07/02 00:54:32;;;;;;;9.82;5.82;;;;;;;;;;5028922;28;20447;-80
2022/07/02 00:56:58;;;;;;;8.95;5.82;;;;;;;;;;5045216;28;20025;-81
2022/07/02 00:59:24;;;;;;;8.70;4.95;;;;;;;;;;5011387;28;20120;-80
2022/07/02 01:01:49;;;;;;;11.18;6.07;;;;;;;;;;5009605;28;20110;-80
2022/07/02 01:04:15;;;;;;;12.02;7.43;;;;;;;;;;5044614;28;20504;-80
2022/07/02 01:06:41;;;;;;;10.40;6.90;;;;;;;;;;5012777;28;20465;-81
2022/07/02 01:11:51;;;;;;;12.30;7.10;;;;;;;;;;5041015;28;20098;-80
2022/07/02 01:14:18;;;;;;;11.20;6.25;;;;;;;;;;5027655;28;20017;-80
2022/07/02 01:16:43;;;;;;;15.73;6.97;;;;;;;;;;5024696;28;20037;-80
2022/07/02 01:19:08;;;;;;;12.80;6.28;;;;;;;;;;5025657;28;20111;-81
2022/07/02 01:21:34;;;;;;;9.93;6.88;;;;;;;;;;5043477;28;20500;-80
2022/07/02 01:23:59;;;;;;;9.40;6.65;;;;;;;;;;5018925;28;20056;-80
2022/07/02 01:26:24;;;;;;;12.43;7.13;;;;;;;;;;5021036;28;20037;-80
2022/07/02 01:28:50;;;;;;;10.90;7.22;;;;;;;;;;5032183;28;20052;-79
2022/07/02 01:31:15;;;;;;;14.38;7.22;;;;;;;;;;5043394;28;20053;-80
2022/07/02 01:33:41;;;;;;;11.88;6.97;;;;;;;;;;5046538;28;20527;-80
2022/07/02 01:36:06;;;;;;;13.25;7.22;;;;;;;;;;5011378;28;20501;-80
2022/07/02 01:38:31;;;;;;;9.75;6.93;;;;;;;;;;5040876;28;20032;-80
2022/07/02 01:41:38;;;;;;;11.63;6.57;;;;;;;;;;5003751;28;20112;-80
2022/07/02 01:43:42;;;;;;;12.82;7.93;;;;;;;;;;5029662;28;20156;-80
2022/07/02 01:46:08;;;;;;;9.43;6.82;;;;;;;;;;4996413;28;20552;-80
2022/07/02 01:48:33;;;;;;;10.90;8.55;;;;;;;;;;5026208;28;20121;-80
2022/07/02 01:50:58;;;;;;;15.20;8.38;;;;;;;;;;5024510;28;20049;-80
2022/07/02 01:53:24;;;;;;;13.35;9.27;;;;;;;;;;5023916;28;20044;-81
2022/07/02 01:55:49;;;;;;;12.13;9.65;;;;;;;;;;5042225;28;20144;-80
2022/07/02 01:58:14;;;;;;;21.80;9.57;;;;;;;;;;5042274;28;20084;-80
2022/07/02 02:00:40;;;;;;;14.18;9.45;;;;;;;;;;5042658;28;20458;-80
2022/07/02 02:03:05;;;;;;;15.77;10.07;;;;;;;;;;5042367;28;20116;-80
2022/07/02 02:05:30;;;;;;;14.18;9.90;;;;;;;;;;5024309;28;20073;-80
2022/07/02 02:07:56;;;;;;;14.93;10.35;;;;;;;;;;5026962;28;20096;-80
2022/07/02 02:10:21;;;;;;;17.10;9.93;;;;;;;;;;5040727;28;20458;-80
2022/07/02 02:12:46;;;;;;;13.60;9.68;;;;;;;;;;5020401;28;20083;-80
2022/07/02 02:15:12;;;;;;;14.57;9.70;;;;;;;;;;5042341;28;20072;-80
2022/07/02 02:17:37;;;;;;;15.27;9.07;;;;;;;;;;5026976;28;20080;-80
2022/07/02 02:20:03;;;;;;;14.45;9.38;;;;;;;;;;4994890;28;20480;-80
2022/07/02 02:22:28;;;;;;;13.32;9.65;;;;;;;;;;5026663;28;20033;-80
2022/07/02 02:24:54;;;;;;;13.25;9.52;;;;;;;;;;5023254;28;20630;-80
2022/07/02 02:27:19;;;;;;;14.57;8.70;;;;;;;;;;5008969;28;20049;-80
2022/07/02 02:29:44;;;;;;;13.27;8.68;;;;;;;;;;5010786;28;20093;-80
2022/07/02 02:32:10;;;;;;;17.58;11.10;;;;;;;;;;5025973;28;20123;-81
2022/07/02 02:34:35;;;;;;;20.38;11.00;;;;;;;;;;5041178;28;20116;-81
2022/07/02 02:37:01;;;;;;;12.88;9.77;;;;;;;;;;5040015;28;20112;-81
2022/07/02 02:39:26;;;;;;;14.43;10.23;;;;;;;;;;5023741;28;20397;-81
2022/07/02 02:41:51;;;;;;;14.00;9.07;;;;;;;;;;5010254;28;20053;-81
2022/07/02 02:44:17;;;;;;;13.73;8.95;;;;;;;;;;5017792;28;20057;-81
2022/07/02 02:46:42;;;;;;;13.00;10.70;;;;;;;;;;5041601;28;20550;-81
2022/07/02 02:49:07;;;;;;;11.95;9.65;;;;;;;;;;4992955;28;20067;-81
2022/07/02 02:51:33;;;;;;;16.05;10.63;;;;;;;;;;5040224;28;20457;-81
2022/07/02 02:53:59;;;;;;;18.77;12.70;;;;;;;;;;5041371;28;20064;-81
2022/07/02 02:56:24;;;;;;;14.07;11.00;;;;;;;;;;5008810;28;20127;-81
2022/07/02 02:58:49;;;;;;;12.40;10.95;;;;;;;;;;5026231;28;20041;-80
2022/07/02 03:01:15;;;;;;;22.52;13.25;;;;;;;;;;5041875;28;20549;-81
2022/07/02 03:03:40;;;;;;;19.10;12.98;;;;;;;;;;5045237;28;20033;-80
2022/07/02 03:06:05;;;;;;;15.23;12.00;;;;;;;;;;5006278;28;20032;-79
2022/07/02 03:08:32;;;;;;;19.60;15.15;;;;;;;;;;5016759;28;20057;-79
2022/07/02 03:10:57;;;;;;;20.98;13.40;;;;;;;;;;5009592;28;20033;-79
2022/07/02 03:13:23;;;;;;;19.85;13.98;;;;;;;;;;5011018;28;20079;-80
2022/07/02 03:15:48;;;;;;;18.60;15.25;;;;;;;;;;5042346;28;20052;-79
2022/07/02 03:18:13;;;;;;;21.65;15.05;;;;;;;;;;5024998;28;20140;-80
2022/07/02 03:20:39;;;;;;;18.58;15.60;;;;;;;;;;5023802;28;20025;-80
2022/07/02 03:23:04;;;;;;;21.63;16.20;;;;;;;;;;5042266;28;20101;-80
2022/07/02 03:25:29;;;;;;;20.00;16.17;;;;;;;;;;5040964;28;20033;-80
2022/07/02 03:27:55;;;;;;;22.50;16.23;;;;;;;;;;5023218;28;20490;-79
2022/07/02 03:30:20;;;;;;;28.20;16.98;;;;;;;;;;5019252;28;20029;-79
2022/07/02 03:32:46;;;;;;;24.48;18.35;;;;;;;;;;5010307;28;20057;-79
2022/07/02 03:35:11;;;;;;;25.75;19.30;;;;;;;;;;5026888;28;20057;-79
2022/07/02 03:37:36;;;;;;;24.02;18.13;;;;;;;;;;5042283;28;20163;-80
2022/07/02 03:40:02;;;;;;;23.83;19.00;;;;;;;;;;5040412;28;20407;-79
2022/07/02 03:42:27;;;;;;;25.58;17.40;;;;;;;;;;5039417;28;20033;-79
2022/07/02 03:44:52;;;;;;;22.60;17.52;;;;;;;;;;5024258;28;20171;-79
2022/07/02 03:47:18;;;;;;;21.58;16.80;;;;;;;;;;5040424;28;20117;-80
2022/07/02 03:49:43;;;;;;;27.77;18.77;;;;;;;;;;5008756;28;20523;-80
2022/07/02 03:52:09;;;;;;;24.80;18.92;;;;;;;;;;5024282;28;20102;-80
2022/07/02 03:54:34;;;;;;;26.23;17.42;;;;;;;;;;5040126;28;20104;-81
2022/07/02 03:56:59;;;;;;;19.90;17.58;;;;;;;;;;5004397;28;20132;-81
2022/07/02 03:59:25;;;;;;;23.45;16.77;;;;;;;;;;5024530;28;20065;-79
2022/07/02 04:01:52;;;;;;;20.38;16.00;;;;;;;;;;5023539;28;20040;-80
2022/07/02 04:04:18;;;;;;;22.52;17.00;;;;;;;;;;5041678;28;20028;-80
2022/07/02 04:06:43;;;;;;;29.52;19.25;;;;;;;;;;5006686;28;20223;-80
2022/07/02 04:09:09;;;;;;;23.10;15.88;;;;;;;;;;5009844;28;20112;-80
2022/07/02 04:11:34;;;;;;;18.90;15.88;;;;;;;;;;5006014;28;20132;-80
2022/07/02 04:14:00;;;;;;;18.58;15.10;;;;;;;;;;5040668;28;20086;-80
2022/07/02 04:16:25;;;;;;;26.58;15.23;;;;;;;;;;4990025;28;20044;-80
2022/07/02 04:18:50;;;;;;;24.33;15.98;;;;;;;;;;5023678;28;20033;-80
2022/07/02 04:21:16;;;;;;;27.10;17.00;;;;;;;;;;5018223;28;20032;-80
2022/07/02 04:23:41;;;;;;;23.75;16.02;;;;;;;;;;5024379;28;20313;-80
2022/07/02 04:26:06;;;;;;;20.95;15.65;;;;;;;;;;4992015;28;20053;-80
2022/07/02 04:28:32;;;;;;;20.13;15.77;;;;;;;;;;5041250;28;20451;-80
2022/07/02 04:30:57;;;;;;;19.85;15.20;;;;;;;;;;4991328;28;20037;-80
2022/07/02 04:33:23;;;;;;;18.13;14.77;;;;;;;;;;5008737;28;20108;-80
2022/07/02 04:35:51;;;;;;;20.73;15.35;;;;;;;;;;5040224;28;20047;-80
2022/07/02 04:38:22;;;;;;;18.77;14.48;;;;;;;;;;4986938;28;20037;-80
2022/07/02 04:40:47;;;;;;;22.95;14.82;;;;;;;;;;5002047;28;20021;-80
2022/07/02 04:43:12;;;;;;;21.27;15.18;;;;;;;;;;5006186;28;20095;-80
2022/07/02 04:45:38;;;;;;;17.90;13.40;;;;;;;;;;5024404;28;20087;-80
2022/07/02 04:48:04;;;;;;;19.33;14.05;;;;;;;;;;5058119;28;20056;-80
2022/07/02 04:50:30;;;;;;;15.57;13.43;;;;;;;;;;5022789;28;20048;-80
2022/07/02 04:52:55;;;;;;;18.67;13.15;;;;;;;;;;5040489;28;20033;-80
2022/07/02 04:55:20;;;;;;;19.20;11.95;;;;;;;;;;5042031;28;20069;-80
2022/07/02 04:57:46;;;;;;;18.80;10.82;;;;;;;;;;5024152;28;20060;-80
2022/07/02 05:00:12;;;;;;;19.17;11.27;;;;;;;;;;5023818;28;20061;-80
2022/07/02 05:02:37;;;;;;;17.55;11.07;;;;;;;;;;5022291;28;20181;-80
2022/07/02 05:05:03;;;;;;;12.95;10.48;;;;;;;;;;5037491;28;20053;-81
2022/07/02 05:07:28;;;;;;;15.48;10.43;;;;;;;;;;4990312;28;20074;-81
2022/07/02 05:09:54;;;;;;;15.05;9.98;;;;;;;;;;5006424;28;20120;-80
2022/07/02 05:12:19;;;;;;;15.98;9.77;;;;;;;;;;5026554;28;20636;-80
2022/07/02 05:14:44;;;;;;;12.20;8.82;;;;;;;;;;5030255;28;20057;-80
2022/07/02 05:17:10;;;;;;;16.75;9.80;;;;;;;;;;5051054;28;20049;-81
2022/07/02 05:19:35;;;;;;;15.40;9.45;;;;;;;;;;5009568;28;20056;-80
2022/07/02 05:22:01;;;;;;;14.38;9.27;;;;;;;;;;5041690;28;20017;-81
2022/07/02 05:24:26;;;;;;;12.57;8.63;;;;;;;;;;5013943;28;20043;-80
2022/07/02 05:26:51;;;;;;;12.70;8.48;;;;;;;;;;5047401;28;20036;-80
2022/07/02 05:29:17;;;;;;;16.50;8.45;;;;;;;;;;5012569;28;20052;-80
2022/07/02 05:31:42;;;;;;;14.25;8.40;;;;;;;;;;5026655;28;20040;-80
2022/07/02 05:34:07;;;;;;;13.00;7.47;;;;;;;;;;5031140;28;20477;-79
2022/07/02 05:36:33;;;;;;;12.75;7.30;;;;;;;;;;5006023;28;20120;-79
2022/07/02 05:38:58;;;;;;;18.13;7.65;;;;;;;;;;5011962;28;20049;-80
2022/07/02 05:41:23;;;;;;;11.38;6.40;;;;;;;;;;4994737;28;20793;-75
2022/07/02 05:43:49;;;;;;;14.93;6.47;;;;;;;;;;5008831;28;20052;-75
2022/07/02 05:46:14;;;;;;;10.63;5.70;;;;;;;;;;5031302;28;20045;-76
2022/07/02 05:48:41;;;;;;;12.57;6.10;;;;;;;;;;5037307;28;20103;-76
2022/07/02 05:51:06;;;;;;;11.60;5.65;;;;;;;;;;5044401;28;20040;-76
2022/07/02 05:53:32;;;;;;;10.60;5.47;;;;;;;;;;5044064;28;20029;-76
2022/07/02 05:55:57;;;;;;;10.90;4.93;;;;;;;;;;5010510;28;20507;-76
2022/07/02 05:58:22;;;;;;;14.43;5.30;;;;;;;;;;5045768;28;20057;-76
2022/07/02 06:00:48;;;;;;;6.75;4.30;;;;;;;;;;5043544;28;20124;-76
2022/07/02 06:03:13;;;;;;;9.77;4.32;;;;;;;;;;5045022;28;20393;-76
2022/07/02 06:08:22;;;;;;;8.48;3.63;;;;;;;;;;5044783;28;20257;-76
2022/07/02 06:10:48;;;;;;;5.85;3.15;;;;;;;;;;5025758;28;20029;-76
2022/07/02 06:13:15;;;;;;;9.02;3.58;;;;;;;;;;5038870;28;20075;-76
2022/07/02 06:15:40;;;;;;;9.88;4.45;;;;;;;;;;5026183;28;20095;-76
2022/07/02 06:18:14;;;;;;;9.10;2.88;;;;;;;;;;5049053;28;20489;-77
2022/07/02 06:20:40;;;;;;;9.00;3.20;;;;;;;;;;5026920;28;20108;-76
2022/07/02 06:23:05;;;;;;;12.18;3.20;;;;;;;;;;5018521;28;20094;-76
2022/07/02 06:25:31;;;;;;;4.78;2.60;;;;;;;;;;5021843;28;20461;-75
2022/07/02 06:27:56;;;;;;;6.18;3.03;;;;;;;;;;5040555;28;20078;-75
2022/07/02 06:30:23;;;;;;;6.32;2.60;;;;;;;;;;5032429;28;20107;-76
2022/07/02 06:32:48;;;;;;;7.30;3.30;;;;;;;;;;5011913;28;20036;-76
2022/07/02 06:35:14;;;;;;;4.30;2.10;;;;;;;;;;5020096;28;20045;-76
2022/07/02 06:37:39;;;;;;;7.40;2.63;;;;;;;;;;5004811;28;20040;-76
2022/07/02 06:40:05;;;;;;;6.25;2.67;;;;;;;;;;5035768;28;20578;-76
2022/07/02 06:42:31;;;;;;;4.90;2.33;;;;;;;;;;5000207;28;20029;-76
2022/07/02 06:44:57;;;;;;;6.35;1.92;;;;;;;;;;5059614;28;20122;-76
2022/07/02 06:47:23;;;;;;;8.50;2.40;;;;;;;;;;5058833;28;20080;-76
2022/07/02 06:49:48;;;;;;;5.55;1.90;;;;;;;;;;4993879;28;20029;-76
2022/07/02 06:52:14;;;;;;;7.43;1.75;;;;;;;;;;5042434;28;20040;-76
2022/07/02 06:54:39;;;;;;;4.65;1.73;;;;;;;;;;5026263;28;20108;-76
2022/07/02 06:57:05;;;;;;;6.13;1.48;;;;;;;;;;5025363;28;20481;-76
2022/07/02 06:59:30;;;;;;;4.60;1.67;;;;;;;;;;5023322;28;20029;-76
2022/07/02 07:01:56;;;;;;;5.93;1.92;;;;;;;;;;5024369;28;20041;-76
2022/07/02 07:04:21;;;;;;;6.47;1.50;;;;;;;;;;5022635;28;20035;-76
2022/07/02 07:06:49;;;;;;;5.43;1.25;;;;;;;;;;5013008;28;20547;-76
2022/07/02 07:09:15;;;;;;;3.50;1.27;;;;;;;;;;5019699;28;20507;-76
2022/07/02 07:11:40;;;;;;;3.50;1.33;;;;;;;;;;5039377;28;20029;-76
2022/07/02 07:14:05;;;;;;;3.45;1.10;;;;;;;;;;5015355;28;20510;-75
2022/07/02 07:16:31;;;;;;;4.35;1.08;;;;;;;;;;5002456;28;20041;-75
2022/07/02 07:19:00;;;;;;;5.53;1.48;;;;;;;;;;5035404;28;20106;-77
2022/07/02 07:21:25;;;;;;;4.10;0.75;;;;;;;;;;5038638;28;22401;-75
2022/07/02 07:23:51;;;;;;;5.80;1.58;;;;;;;;;;5043042;28;20183;-76
2022/07/02 07:26:16;;;;;;;5.28;1.50;;;;;;;;;;5030694;28;20057;-76
2022/07/02 07:28:42;;;;;;;4.70;1.05;;;;;;;;;;5045917;28;20029;-77
2022/07/02 07:31:07;;;;;;;6.22;1.13;;;;;;;;;;5012379;28;20049;-76
2022/07/02 07:33:32;;;;;;;1.90;0.55;;;;;;;;;;4997143;28;20083;-77
2022/07/02 07:35:58;;;;;;;2.42;1.00;;;;;;;;;;5029422;28;20061;-77
2022/07/02 07:38:23;;;;;;;3.95;1.20;;;;;;;;;;5027418;28;20040;-77
2022/07/02 07:40:49;;;;;;;3.70;1.00;;;;;;;;;;5034629;28;20036;-77
2022/07/02 07:43:14;;;;;;;5.97;1.20;;;;;;;;;;4996772;28;20100;-77
2022/07/02 07:45:39;;;;;;;3.03;1.20;;;;;;;;;;5028521;28;20025;-77
2022/07/02 07:48:05;;;;;;;6.00;1.73;;;;;;;;;;5043488;28;20057;-76
2022/07/02 07:50:30;;;;;;;5.55;1.23;;;;;;;;;;5039913;28;20519;-76
2022/07/02 07:52:55;;;;;;;5.45;0.98;;;;;;;;;;5045736;28;20128;-76
2022/07/02 07:55:21;;;;;;;2.83;1.10;;;;;;;;;;5057335;28;20109;-78
2022/07/02 07:57:46;;;;;;;3.90;1.08;;;;;;;;;;5031595;28;20033;-75
2022/07/02 08:00:13;;;;;;;5.25;1.15;;;;;;;;;;5023859;28;20095;-76
2022/07/02 08:02:39;;;;;;;4.60;1.05;;;;;;;;;;5025998;28;20033;-76
2022/07/02 08:05:05;;;;;;;5.30;1.35;;;;;;;;;;5024142;28;20102;-75
2022/07/02 08:07:37;;;;;;;2.55;0.73;;;;;;;;;;5045637;28;20501;-76
2022/07/02 08:10:06;;;;;;;2.92;0.80;;;;;;;;;;5039685;28;20451;-77
2022/07/02 08:12:32;;;;;;;6.55;1.33;;;;;;;;;;5029993;28;20403;-77
2022/07/02 08:14:59;;;;;;;3.88;0.73;;;;;;;;;;4993246;28;20105;-77
2022/07/02 08:17:25;;;;;;;1.90;0.77;;;;;;;;;;5021012;28;20028;-79
2022/07/02 08:19:50;;;;;;;6.28;1.00;;;;;;;;;;5034293;28;20380;-78
2022/07/02 08:22:16;;;;;;;4.45;1.13;;;;;;;;;;5050125;28;20044;-78
2022/07/02 08:24:41;;;;;;;3.03;0.77;;;;;;;;;;5039155;28;20429;-78
2022/07/02 08:27:06;;;;;;;3.47;1.10;;;;;;;;;;5029258;28;20029;-78
2022/07/02 08:29:32;;;;;;;1.83;0.60;;;;;;;;;;4983938;28;20634;-78
2022/07/02 08:31:57;;;;;;;5.38;1.00;;;;;;;;;;4990228;28;20175;-78
2022/07/02 08:34:22;;;;;;;4.28;0.88;;;;;;;;;;5026304;28;20056;-78
2022/07/02 08:36:48;;;;;;;3.03;0.77;;;;;;;;;;5022441;28;20073;-78
2022/07/02 08:39:13;;;;;;;2.03;0.70;;;;;;;;;;4991975;28;20605;-78
2022/07/02 08:41:39;;;;;;;3.08;0.93;;;;;;;;;;4995919;28;20121;-78
2022/07/02 08:44:04;;;;;;;4.50;1.30;;;;;;;;;;5024217;28;20128;-78
2022/07/02 08:46:30;;;;;;;3.90;0.90;;;;;;;;;;5028838;28;20064;-78
2022/07/02 08:48:55;;;;;;;5.57;1.08;;;;;;;;;;5026732;28;20056;-77
2022/07/02 08:51:21;;;;;;;2.33;0.80;;;;;;;;;;5028442;28;20108;-78
2022/07/02 08:53:46;;;;;;;3.17;0.70;;;;;;;;;;5021393;28;20389;-78
2022/07/02 08:56:13;;;;;;;3.45;0.82;;;;;;;;;;5013456;28;20513;-77
2022/07/02 08:58:38;;;;;;;4.35;0.93;;;;;;;;;;5009033;28;20450;-77
2022/07/02 09:01:05;;;;;;;4.72;1.00;;;;;;;;;;5023856;28;20048;-76
2022/07/02 09:03:30;;;;;;;3.55;0.73;;;;;;;;;;5011230;28;20044;-75
2022/07/02 09:05:56;;;;;;;3.58;1.25;;;;;;;;;;5010268;28;20055;-77
2022/07/02 09:08:22;;;;;;;5.88;1.10;;;;;;;;;;5026731;28;20052;-79
2022/07/02 09:10:48;;;;;;;5.82;1.10;;;;;;;;;;5003564;28;20033;-76
2022/07/02 09:13:14;;;;;;;2.95;0.90;;;;;;;;;;5042413;28;20026;-76
2022/07/02 09:15:39;;;;;;;3.80;0.80;;;;;;;;;;5009946;28;20033;-77
2022/07/02 09:18:04;;;;;;;2.70;0.90;;;;;;;;;;5014498;28;20032;-77
2022/07/02 09:20:30;;;;;;;4.47;0.98;;;;;;;;;;5010099;28;20447;-78
2022/07/02 09:22:55;;;;;;;5.45;0.90;;;;;;;;;;4992673;28;20032;-76
2022/07/02 09:25:22;;;;;;;3.35;1.17;;;;;;;;;;5011884;28;20121;-76
2022/07/02 09:27:48;;;;;;;6.40;1.58;;;;;;;;;;5044957;28;20481;-76
2022/07/02 09:30:15;;;;;;;2.85;0.90;;;;;;;;;;5029479;28;20095;-76
2022/07/02 09:32:44;;;;;;;7.20;1.23;;;;;;;;;;5027506;28;20045;-76
2022/07/02 09:35:19;;;;;;;3.08;1.00;;;;;;;;;;5022097;28;20037;-75
2022/07/02 09:37:46;;;;;;;3.65;0.98;;;;;;;;;;5042510;28;20561;-75
2022/07/02 09:40:11;;;;;;;3.17;1.08;;;;;;;;;;5010584;28;21057;-72
2022/07/02 09:42:36;;;;;;;3.40;0.93;;;;;;;;;;5038567;28;20086;-76
2022/07/02 09:45:04;;;;;;;3.47;0.95;;;;;;;;;;5026060;28;20136;-73
2022/07/02 09:47:33;;;;;;;4.57;1.00;;;;;;;;;;5041025;28;20378;-78
2022/07/02 09:50:12;;;;;;;3.50;0.77;;;;;;;;;;5045213;28;20033;-76
2022/07/02 09:52:54;;;;;;;4.35;0.88;;;;;;;;;;5009166;28;20033;-75
2022/07/02 09:55:24;;;;;;;1.63;0.60;;;;;;;;;;5036340;28;20083;-75
2022/07/02 09:57:50;;;;;;;3.90;1.05;;;;;;;;;;5025612;28;20124;-76
2022/07/02 10:00:16;;;;;;;2.63;0.75;;;;;;;;;;5026610;28;20045;-77
2022/07/02 10:02:41;;;;;;;4.35;0.88;;;;;;;;;;5026244;28;20029;-77
2022/07/02 10:05:07;;;;;;;3.70;0.75;;;;;;;;;;5041831;28;20038;-76
2022/07/02 10:07:32;;;;;;;3.00;1.05;;;;;;;;;;5008421;28;20025;-74
2022/07/02 10:09:59;;;;;;;3.95;1.00;;;;;;;;;;5041100;28;20128;-75
2022/07/02 10:12:25;;;;;;;4.43;1.10;;;;;;;;;;5036035;28;20032;-75
2022/07/02 10:14:50;;;;;;;6.40;0.90;;;;;;;;;;5011436;28;20112;-76
2022/07/02 10:17:16;;;;;;;3.95;0.93;;;;;;;;;;5009942;28;20067;-75
2022/07/02 10:19:41;;;;;;;2.53;0.82;;;;;;;;;;5012525;28;20067;-77
2022/07/02 10:22:06;;;;;;;3.85;0.85;;;;;;;;;;5010306;28;20048;-75
2022/07/02 10:24:33;;;;;;;3.60;0.60;;;;;;;;;;4995503;28;20025;-75
2022/07/02 10:27:01;;;;;;;3.40;0.95;;;;;;;;;;5044797;28;20112;-75
2022/07/02 10:29:27;;;;;;;3.60;0.70;;;;;;;;;;5024053;28;20091;-75
2022/07/02 10:31:59;;;;;;;2.63;0.80;;;;;;;;;;4992113;28;20029;-75
2022/07/02 10:34:50;;;;;;;2.33;0.80;;;;;;;;;;5020418;28;20328;-75
2022/07/02 10:37:16;;;;;;;3.78;1.00;;;;;;;;;;5046795;28;20389;-75
2022/07/02 10:39:42;;;;;;;4.80;1.17;;;;;;;;;;5048997;28;20202;-75
2022/07/02 10:42:08;;;;;;;3.35;0.93;;;;;;;;;;5026853;28;20069;-76
2022/07/02 10:44:42;;;;;;;2.75;0.90;;;;;;;;;;5024108;28;20060;-75
2022/07/02 10:47:24;;;;;;;4.70;0.98;;;;;;;;;;5024466;28;20419;-75
2022/07/02 10:49:59;;;;;;;10.38;1.13;;;;;;;;;;5037114;28;20538;-76
2022/07/02 10:52:56;;;;;;;5.05;1.15;;;;;;;;;;5024632;28;20025;-76
2022/07/02 10:55:27;;;;;;;2.92;1.00;;;;;;;;;;4998696;28;20709;-78
2022/07/02 10:57:59;;;;;;;3.55;0.75;;;;;;;;;;5021894;28;20033;-76
2022/07/02 11:00:28;;;;;;;5.53;0.93;;;;;;;;;;5032203;28;20692;-74
2022/07/02 11:02:54;;;;;;;5.47;1.23;;;;;;;;;;5006400;28;20124;-75
2022/07/02 11:05:21;;;;;;;5.05;1.20;;;;;;;;;;5019883;28;20055;-74
2022/07/02 11:07:46;;;;;;;3.75;0.88;;;;;;;;;;5003604;28;20030;-74
2022/07/02 11:10:12;;;;;;;7.13;1.25;;;;;;;;;;5013932;28;20057;-74
2022/07/02 11:12:46;;;;;;;5.22;1.13;;;;;;;;;;5033169;28;20644;-74
2022/07/02 11:15:36;;;;;;;6.45;1.00;;;;;;;;;;5006175;28;20366;-74
2022/07/02 11:18:03;;;;;;;2.70;0.80;;;;;;;;;;5035935;28;20082;-75
2022/07/02 11:20:29;;;;;;;4.35;1.30;;;;;;;;;;5021982;28;20037;-76
2022/07/02 11:22:55;;;;;;;5.05;1.10;;;;;;;;;;5008286;28;20136;-76
2022/07/02 11:25:21;;;;;;;4.43;0.95;;;;;;;;;;5021409;28;20030;-74
2022/07/02 11:28:00;;;;;;;4.93;1.00;;;;;;;;;;5021544;28;20033;-76
2022/07/02 11:30:31;;;;;;;6.03;0.80;;;;;;;;;;5020851;28;20045;-75
2022/07/02 11:32:57;;;;;;;6.65;1.05;;;;;;;;;;5002991;28;20029;-76
2022/07/02 11:35:23;;;;;;;5.63;1.13;;;;;;;;;;5038812;28;20045;-76
2022/07/02 11:37:49;;;;;;;4.45;1.27;;;;;;;;;;5012793;28;20037;-76
2022/07/02 11:40:21;;;;;;;3.08;0.88;;;;;;;;;;5039134;28;20029;-76
2022/07/02 11:42:46;;;;;;;4.07;1.15;;;;;;;;;;5023142;28;20033;-75
2022/07/02 11:45:12;;;;;;;4.20;1.05;;;;;;;;;;5038683;28;20132;-75
2022/07/02 11:47:47;;;;;;;3.75;0.63;;;;;;;;;;5016232;28;20041;-75
2022/07/02 11:50:12;;;;;;;3.90;1.10;;;;;;;;;;4997012;28;20036;-76
2022/07/02 11:52:39;;;;;;;3.80;0.90;;;;;;;;;;5041446;28;20043;-75
2022/07/02 11:55:05;;;;;;;7.10;0.95;;;;;;;;;;5020711;28;20473;-75
2022/07/02 11:57:34;;;;;;;4.75;0.82;;;;;;;;;;5031399;28;20036;-76
2022/07/02 11:59:59;;;;;;;6.07;1.33;;;;;;;;;;5031758;28;20033;-76
2022/07/02 12:02:24;;;;;;;2.42;0.77;;;;;;;;;;5008152;28;20029;-75
2022/07/02 12:04:50;;;;;;;4.95;1.10;;;;;;;;;;5007392;28;20046;-74
2022/07/02 12:07:15;;;;;;;4.60;1.15;;;;;;;;;;5014308;28;20041;-76
2022/07/02 12:09:41;;;;;;;3.35;0.82;;;;;;;;;;5003620;28;20121;-76
2022/07/02 12:12:06;;;;;;;2.70;0.88;;;;;;;;;;5011873;28;20064;-76
2022/07/02 12:14:32;;;;;;;3.70;1.20;;;;;;;;;;5026582;28;20029;-76
2022/07/02 12:16:57;;;;;;;6.40;0.90;;;;;;;;;;5006296;28;20033;-76
2022/07/02 12:19:32;;;;;;;2.38;0.80;;;;;;;;;;4990168;28;20052;-76
2022/07/02 12:21:57;;;;;;;2.58;0.77;;;;;;;;;;5004646;28;20477;-75
2022/07/02 12:24:34;;;;;;;2.13;0.50;;;;;;;;;;5038362;28;20029;-76
2022/07/02 12:27:07;;;;;;;4.15;0.90;;;;;;;;;;5028944;28;20033;-76
2022/07/02 12:32:32;;;;;;;3.67;0.98;;;;;;;;;;5026960;28;20079;-75
2022/07/02 12:35:02;;;;;;;4.43;1.10;;;;;;;;;;5014400;28;20026;-75
2022/07/02 12:37:29;;;;;;;3.92;1.00;;;;;;;;;;5030206;28;20389;-75
2022/07/02 12:40:02;;;;;;;5.90;0.80;;;;;;;;;;5019717;28;20040;-76
2022/07/02 12:42:28;;;;;;;5.13;0.90;;;;;;;;;;5025617;28;20040;-77
2022/07/02 12:44:58;;;;;;;4.18;0.70;;;;;;;;;;5026018;28;20025;-76
2022/07/02 12:47:24;;;;;;;7.70;1.00;;;;;;;;;;5022130;28;20033;-75
2022/07/02 12:50:00;;;;;;;3.47;0.80;;;;;;;;;;5043241;28;20094;-75
2022/07/02 12:52:27;;;;;;;3.50;0.85;;;;;;;;;;5026371;28;20486;-76
2022/07/02 12:54:52;;;;;;;4.18;1.00;;;;;;;;;;5003824;28;20037;-75
2022/07/02 12:57:19;;;;;;;6.28;0.88;;;;;;;;;;5057405;28;20132;-76
2022/07/02 12:59:44;;;;;;;3.55;0.82;;;;;;;;;;4987039;28;20029;-73
2022/07/02 13:02:24;;;;;;;3.55;0.90;;;;;;;;;;5023838;28;20433;-76
2022/07/02 13:04:49;;;;;;;6.03;1.10;;;;;;;;;;5036334;28;20028;-76
2022/07/02 13:07:15;;;;;;;4.63;1.00;;;;;;;;;;4993530;28;20037;-75
2022/07/02 13:09:41;;;;;;;5.47;1.10;;;;;;;;;;5028187;28;20022;-75
2022/07/02 13:12:06;;;;;;;5.13;0.88;;;;;;;;;;5030229;28;20033;-75
2022/07/02 13:14:32;;;;;;;5.57;1.13;;;;;;;;;;5046414;28;20021;-76
2022/07/02 13:16:57;;;;;;;4.18;1.00;;;;;;;;;;5046532;28;20057;-76
2022/07/02 13:19:22;;;;;;;4.13;0.80;;;;;;;;;;5027322;28;20056;-76
2022/07/02 13:21:48;;;;;;;3.53;0.95;;;;;;;;;;5027031;28;20100;-75
2022/07/02 13:24:13;;;;;;;5.70;1.00;;;;;;;;;;5009764;28;20551;-75
2022/07/02 13:26:39;;;;;;;3.60;1.25;;;;;;;;;;5040147;28;20227;-74
2022/07/02 13:29:04;;;;;;;4.93;1.27;;;;;;;;;;5025278;28;20477;-75
2022/07/02 13:31:29;;;;;;;4.18;0.82;;;;;;;;;;5025799;28;20116;-75
2022/07/02 13:33:55;;;;;;;2.85;0.85;;;;;;;;;;5022076;28;20112;-75
2022/07/02 13:36:20;;;;;;;5.80;1.10;;;;;;;;;;5037685;28;20070;-77
2022/07/02 13:38:45;;;;;;;3.22;0.90;;;;;;;;;;5017639;28;20442;-76
2022/07/02 13:41:11;;;;;;;5.00;0.98;;;;;;;;;;5039127;28;20032;-76
2022/07/02 13:43:36;;;;;;;5.03;0.82;;;;;;;;;;5025111;28;20105;-76
2022/07/02 13:46:01;;;;;;;5.18;0.93;;;;;;;;;;5038995;28;20080;-75
2022/07/02 13:48:27;;;;;;;4.75;0.80;;;;;;;;;;5033046;28;20036;-75
2022/07/02 13:50:52;;;;;;;3.40;0.70;;;;;;;;;;5025731;28;20559;-75
2022/07/02 13:53:17;;;;;;;4.47;1.20;;;;;;;;;;5040314;28;20036;-75
2022/07/02 13:55:43;;;;;;;3.92;1.13;;;;;;;;;;5039875;28;20114;-75
2022/07/02 13:58:08;;;;;;;5.07;1.27;;;;;;;;;;5040941;28;20029;-75
2022/07/02 14:00:34;;;;;;;4.03;0.88;;;;;;;;;;5039997;28;20116;-74
2022/07/02 14:02:59;;;;;;;2.40;0.60;;;;;;;;;;5037451;28;20064;-75
2022/07/02 14:05:24;;;;;;;6.78;1.15;;;;;;;;;;5041556;28;20045;-75
2022/07/02 14:07:50;;;;;;;5.95;0.80;;;;;;;;;;5045044;28;20390;-74
2022/07/02 14:10:15;;;;;;;3.65;0.70;;;;;;;;;;5041983;28;20113;-74
2022/07/02 14:12:40;;;;;;;3.25;0.90;;;;;;;;;;5026369;28;20560;-74
2022/07/02 14:15:07;;;;;;;2.72;0.80;;;;;;;;;;5039723;28;20071;-74
2022/07/02 14:17:32;;;;;;;7.57;1.42;;;;;;;;;;5043996;28;21529;-74
2022/07/02 14:19:57;;;;;;;3.03;1.00;;;;;;;;;;5039407;28;20056;-75
2022/07/02 14:22:23;;;;;;;2.78;0.90;;;;;;;;;;5038273;28;20099;-75
2022/07/02 14:24:48;;;;;;;3.22;1.15;;;;;;;;;;5034154;28;20489;-74
2022/07/02 14:27:13;;;;;;;2.03;0.73;;;;;;;;;;5042258;28;21109;-75
2022/07/02 14:29:39;;;;;;;2.35;0.73;;;;;;;;;;5025311;28;20099;-74
2022/07/02 14:32:04;;;;;;;3.85;1.23;;;;;;;;;;5036104;28;20084;-76
2022/07/02 14:34:30;;;;;;;8.15;1.08;;;;;;;;;;5039264;28;20041;-74
2022/07/02 14:36:55;;;;;;;3.95;0.75;;;;;;;;;;5043616;28;20581;-74
2022/07/02 14:39:20;;;;;;;3.67;0.88;;;;;;;;;;5043028;28;20550;-75